AirNav   Pilot Hours Calculator
 
 961 users online  

MN67 Sky Park Airport
Lydia, Minnesota, USA

GOING TO LYDIA?


FAA INFORMATION EFFECTIVE 28 FEBRUARY 2019

Location

FAA Identifier: MN67
Lat/Long: 44-39-34.8660N / 093-31-05.8300W
44-39.581100N / 093-31.097167W
44.6596850 / -93.5182861
(estimated)
Elevation: 940 ft. / 287 m (estimated)
Variation: 03E (1985)
From city: 1 mile NW of LYDIA, MN
Time zone: UTC -6 (UTC -5 during Daylight Saving Time)
Zip code: 55352

Airport Operations

Airport use: Private use. Permission required prior to landing
Activation date: 10/1970
Control tower: no
ARTCC: MINNEAPOLIS CENTER
FSS: PRINCETON FLIGHT SERVICE STATION
Attendance: UNATNDD
Wind indicator: yes
Segmented circle: no

Airport Communications

WX ASOS at FCM (10 nm N): PHONE 952-941-4156
WX AWOS-3 at LVN (13 nm E): 118.0 (952-469-5850)
WX ASOS at MSP (18 nm NE): PHONE 612-713-4174

Nearby radio navigation aids

VOR radial/distance  VOR name  Freq  Var
FCMr197/10.4FLYING CLOUD VOR/DME117.7001E
FGTr271/14.5FARMINGTON VORTAC115.7006E
MSPr218/18.6MINNEAPOLIS VOR/DME115.3002E
FOWr345/28.0HALFWAY VOR/DME111.2002E
GEPr186/29.8GOPHER VORTAC117.3006E
MKTr026/31.3MANKATO VOR/DME110.8007E

 
NDB name  Hdg/Dist  Freq  Var  ID
GLENCOE101/25.040703EGYL --. -.-- .-..
HOPEY239/27.740003EPPI .--. .--. ..

Airport Services

Airframe service: NONE
Powerplant service: NONE

Runway Information

Runway 18/36

Dimensions: 3400 x 150 ft. / 1036 x 46 m
Surface: turf
RUNWAY 18  RUNWAY 36
Traffic pattern: leftleft
Obstructions: pline road, 1500 ft. from runwaypline road, 1500 ft. from runway

Airport Ownership and Management from official FAA records

Ownership: Privately-owned
Owner: SKYPARK, INC.
19916 XEON AVE
JORDAN, MN 55352
Phone 952-905-4409
Manager: BRYAN BOURN
19916 XEON AVE
JORDAN, MN 55352
Phone 952-905-4409

Airport Operational Statistics

Aircraft based on the field: 20
Single engine airplanes: 20
    

Instrument Procedures

There are no published instrument procedures at MN67.

Some nearby airports with instrument procedures:

KFCM - Flying Cloud Airport (10 nm N)
KLVN - Airlake Airport (13 nm E)
KMSP - Minneapolis-St Paul International/Wold-Chamberlain Airport (18 nm NE)
KFBL - Faribault Municipal Airport-Liz Wall Strohfus Field (22 nm SE)
KSGS - South St Paul Municipal Airport-Richard E Fleming Field (24 nm NE)
 
Loc | Ops | Rwys | IFR | FBO | Links
Com | Nav | Svcs | Stats | Notes
Area around MN67 (Sky Park Airport)
 
Road maps at: MapQuest Bing Google
 
Aerial photo
No photo
 
Sectional chart

 
Airport distance calculator
Flying to Sky Park Airport? Find the distance to fly.

From to MN67

Sunrise and sunset
Times for 18-Mar-2019
 Local
(UTC-5)
 Zulu
(UTC)
Morning civil twilight06:5311:53
Sunrise07:2212:22
Sunset19:2300:23
Evening civil twilight19:5200:52

Current date and time
Zulu (UTC)  19-Mar-2019 00:51:55
Local (UTC-5)  18-Mar-2019 19:51:55
 
METAR
KFCM 
11nm N 
182353Z 24004KT 10SM CLR 02/M03 A3028 RMK AO2 SLP266 T00221028 10033 20022 58006
KLVN 
13nm E 
190015Z AUTO 00000KT 10SM CLR 02/M01 A3029 RMK AO2
KMSP 
18nm NE 
182353Z 25005KT 10SM FEW110 BKN250 03/M04 A3029 RMK AO2 SLP269 4/001 T00281039 10044 20028 58003
KSGS 
19nm NE 
190035Z AUTO 23004KT 10SM CLR 02/M03 A3029 RMK AO2 T00211030
TAF
KMSP 
18nm NE 
182130Z 1822/1924 26008KT P6SM SCT150 OVC250 FM190300 20005KT P6SM OVC100 FM191500 16007KT P6SM SCT250
NOTAMs
Click for the latest NOTAMs
NOTAMs are issued by the DoD/FAA and will open in a separate window not controlled by AirNav.

 

 
 

Would you like to see your business listed on this page?

 If your business provides an interesting product or service to pilots, flight crews, aircraft, or users of the Sky Park Airport, you should consider listing it here.  To start the listing process, click on the button below
 
Add a business
 

Other Pages about Sky Park Airport

Update a link
 
Copyright © AirNav, LLC. All rights reserved. Privacy Policy  Contact